Bella Vista, Arkansas
Current Conditions -  °F | °C
As of 2:55 PM on Tuesday 27 Jan 2015 (Local Time) from KVBT Reporting Station
Clear Clear  
Wind Chill: 64°   Ceiling: Unl
Heat Index: 64°   Visibility: 10mi
Dew Point: 25°   Wind: 3mph
Humidity: 22%   Direction: 290°WNW
Pressure: 30.13"   Gusts: NA
Location:  36.48°N, 94.25°W
Report Text: KVBT 272055Z AUTO 29003KT 10SM CLR 18/M04 A3013 RMK AO1 57017
Loading
Personal Weather Stations






























Interactive Weather Map New forecast layout! Learn more

10-Day Weather Forecast

Advertisements
Track Severe Weather on mobile